首页
METAR-TAF:

METAR-TAF

机场 :

兰州中川国际机场

兰州, 中华人民共和国

纬度: 36-02N, 经度: 103-52E, 海拔: 1518米

当前天气观测

该预报发布于34分钟前的04:00 UTC
风速8节,风向西南,在南转西南西之间变化
温度 -2°C
湿度 74%
气压 1022 hPa
能見度: 7000
少量云层高于1300英尺

METAR: ZLLL 180400Z 23004MPS 210V270 7000 FEW013 M02/M06 Q1022 NOSIG

时间: 12:34 (04:34 UTC)

预报

该预报发布于9小时和8分钟前的19:26 UTC
预报有效从18日的 00点(UTC)到 18日的 24点(UTC)
风速6节,风向
能見度: 5000
轻雾
成为
从 18日的 21点(UTC)到 18日的 22点(UTC)
能見度: 1000

TAF: ZLLL 171926Z 1800/1824 19003MPS 5000 BR NSC TX02/1809Z TNM10/23Z BECMG 1821/1822 1000

超过4000个机场的气象观测和天气预报(METAR&TAF报告)。

可查询的气象台以黄色和红色小点在地图上表示。

将鼠标移到小点上方,可查看气象台名称。

然后点击查看天气观测和预报。

如需切换地图:点击带黑十字的绿色按钮放大地图;点击带横线的绿色按钮缩小地图;或者点击绿色箭头查看邻近地区的地图。


METAR-TAF: